Time;durP1;ratioP1;P1;durP2;ratioP2;P2;SDS_P1;SDS_P2;PMS_P1;PMS_P2;Temp;Humidity;BMP_temperature;BMP_pressure;BME280_temperature;BME280_humidity;BME280_pressure;Samples;Min_cycle;Max_cycle;Signal;HPM_P1;HPM_P2
2024/01/03 00:02:19;;;;;;;18.50;2.75;;;;;;;-146.25;100.00;70816.00;5073772;28;20377;-60
2024/01/03 00:04:44;;;;;;;13.63;2.60;;;;;;;-146.25;100.00;70816.00;5074999;28;20050;-58
2024/01/03 00:07:10;;;;;;;15.30;2.28;;;;;;;-146.25;100.00;70816.00;5074424;28;20497;-59
2024/01/03 00:09:35;;;;;;;16.35;2.30;;;;;;;-146.25;100.00;70816.00;5072692;28;20129;-59
2024/01/03 00:12:02;;;;;;;13.50;2.03;;;;;;;-146.25;100.00;70816.00;5076723;28;20074;-60
2024/01/03 00:14:31;;;;;;;15.02;2.42;;;;;;;-146.25;100.00;70816.00;5075473;28;20373;-60
2024/01/03 00:17:03;;;;;;;11.63;2.17;;;;;;;-146.25;100.00;70816.00;5075165;28;20063;-60
2024/01/03 00:19:28;;;;;;;13.05;2.25;;;;;;;-146.25;100.00;70816.00;5073517;28;20082;-60
2024/01/03 00:21:55;;;;;;;12.85;2.05;;;;;;;-146.25;100.00;70816.00;5073074;28;20076;-61
2024/01/03 00:24:20;;;;;;;15.15;2.25;;;;;;;-146.25;100.00;70816.00;5073780;28;20122;-62
2024/01/03 00:26:46;;;;;;;13.13;1.90;;;;;;;-146.25;100.00;70816.00;5071768;28;20029;-61
2024/01/03 00:29:50;;;;;;;18.10;2.97;;;;;;;-146.25;100.00;70816.00;5064156;28;20114;-61
2024/01/03 00:32:15;;;;;;;15.43;2.70;;;;;;;-146.25;100.00;70816.00;5069298;28;20354;-61
2024/01/03 00:34:40;;;;;;;16.40;2.25;;;;;;;-146.25;100.00;70816.00;5072470;28;20047;-61
2024/01/03 00:37:27;;;;;;;19.08;2.60;;;;;;;-146.25;100.00;70816.00;5074313;28;20036;-61
2024/01/03 00:39:55;;;;;;;15.15;2.50;;;;;;;-146.25;100.00;70816.00;5071872;28;20156;-62
2024/01/03 00:42:20;;;;;;;12.98;2.10;;;;;;;-146.25;100.00;70816.00;5073383;28;20119;-61
2024/01/03 00:44:46;;;;;;;20.20;3.22;;;;;;;-146.25;100.00;70816.00;5075176;28;20143;-61
2024/01/03 00:47:12;;;;;;;16.08;2.70;;;;;;;-146.25;100.00;70816.00;5075549;28;20086;-61
2024/01/03 00:49:37;;;;;;;19.60;2.50;;;;;;;-146.25;100.00;70816.00;5076597;28;20034;-60
2024/01/03 00:52:04;;;;;;;20.77;3.42;;;;;;;-146.25;100.00;70816.00;5077794;28;20067;-60
2024/01/03 00:54:30;;;;;;;18.15;3.20;;;;;;;-146.25;100.00;70816.00;5078411;28;20048;-59
2024/01/03 00:56:58;;;;;;;21.13;2.90;;;;;;;-146.25;100.00;70816.00;5077880;28;20036;-61
2024/01/03 00:59:23;;;;;;;15.57;2.85;;;;;;;-146.25;100.00;70816.00;5079483;28;20060;-61
2024/01/03 01:01:49;;;;;;;20.98;3.40;;;;;;;-146.25;100.00;70816.00;5077853;28;20040;-60
2024/01/03 01:04:15;;;;;;;22.58;3.45;;;;;;;-146.25;100.00;70816.00;5075430;28;20036;-60
2024/01/03 01:06:43;;;;;;;21.23;3.90;;;;;;;-146.25;100.00;70816.00;5079688;28;20082;-61
2024/01/03 01:09:08;;;;;;;20.83;3.33;;;;;;;-146.25;100.00;70816.00;5082575;28;20096;-61
2024/01/03 01:11:35;;;;;;;21.80;3.67;;;;;;;-146.25;100.00;70816.00;5083492;28;20456;-61
2024/01/03 01:14:00;;;;;;;15.30;2.92;;;;;;;-146.25;100.00;70816.00;5081547;28;20109;-62
2024/01/03 01:16:26;;;;;;;19.30;3.08;;;;;;;-146.25;100.00;70816.00;5081611;28;20032;-60
2024/01/03 01:18:51;;;;;;;17.38;3.15;;;;;;;-146.25;100.00;70816.00;5076666;28;20119;-60
2024/01/03 01:21:16;;;;;;;19.95;3.35;;;;;;;-146.25;100.00;70816.00;5074230;28;20036;-61
2024/01/03 01:23:42;;;;;;;21.15;3.00;;;;;;;-146.25;100.00;70816.00;5074756;28;20033;-62
2024/01/03 01:26:10;;;;;;;25.55;3.78;;;;;;;-146.25;100.00;70816.00;5077355;28;20024;-61
2024/01/03 01:28:36;;;;;;;16.00;2.83;;;;;;;-146.25;100.00;70816.00;5078046;28;20123;-61
2024/01/03 01:31:02;;;;;;;20.15;3.35;;;;;;;-146.25;100.00;70816.00;5073722;28;20111;-62
2024/01/03 01:33:27;;;;;;;21.90;3.30;;;;;;;-146.25;100.00;70816.00;5076389;28;20028;-60
2024/01/03 01:35:52;;;;;;;19.73;3.17;;;;;;;-146.25;100.00;70816.00;5076547;28;20483;-61
2024/01/03 01:38:18;;;;;;;25.58;4.00;;;;;;;-146.25;100.00;70816.00;5075473;28;20127;-61
2024/01/03 01:40:45;;;;;;;22.73;3.92;;;;;;;-146.25;100.00;70816.00;5076526;28;20404;-61
2024/01/03 01:43:11;;;;;;;23.90;3.72;;;;;;;-146.25;100.00;70816.00;5075649;28;20532;-61
2024/01/03 01:45:36;;;;;;;21.02;3.45;;;;;;;-146.25;100.00;70816.00;5075691;28;20036;-61
2024/01/03 01:48:02;;;;;;;20.92;3.58;;;;;;;-146.25;100.00;70816.00;5073003;28;20048;-61
2024/01/03 01:50:27;;;;;;;19.80;3.20;;;;;;;-146.25;100.00;70816.00;5075589;28;20029;-62
2024/01/03 01:52:53;;;;;;;22.92;3.45;;;;;;;-146.25;100.00;70816.00;5075218;28;20044;-62
2024/01/03 01:55:20;;;;;;;20.77;3.35;;;;;;;-146.25;100.00;70816.00;5075683;28;20581;-61
2024/01/03 01:57:46;;;;;;;22.42;4.00;;;;;;;-146.25;100.00;70816.00;5077230;28;20051;-62
2024/01/03 02:00:13;;;;;;;23.83;3.95;;;;;;;-146.25;100.00;70816.00;5073308;28;20068;-62
2024/01/03 02:02:41;;;;;;;19.98;3.22;;;;;;;-146.25;100.00;70816.00;5071762;28;20066;-61
2024/01/03 02:05:07;;;;;;;22.10;3.65;;;;;;;-146.25;100.00;70816.00;5072233;28;20039;-62
2024/01/03 02:07:35;;;;;;;24.08;4.05;;;;;;;-146.25;100.00;70816.00;5075199;28;20071;-62
2024/01/03 02:10:00;;;;;;;20.45;3.38;;;;;;;-146.25;100.00;70816.00;5072317;28;20032;-62
2024/01/03 02:12:29;;;;;;;25.98;4.05;;;;;;;-146.25;100.00;70816.00;5074807;28;20032;-62
2024/01/03 02:14:54;;;;;;;21.83;3.35;;;;;;;-146.25;100.00;70816.00;5076294;28;20044;-62
2024/01/03 02:17:21;;;;;;;24.77;3.92;;;;;;;-146.25;100.00;70816.00;5074485;28;20039;-60
2024/01/03 02:19:46;;;;;;;21.05;3.53;;;;;;;-146.25;100.00;70816.00;5075945;28;20028;-61
2024/01/03 02:22:11;;;;;;;20.98;3.80;;;;;;;-146.25;100.00;70816.00;5074358;28;20044;-61
2024/01/03 02:24:37;;;;;;;23.90;3.47;;;;;;;-146.25;100.00;70816.00;5075623;28;20431;-61
2024/01/03 02:27:02;;;;;;;20.33;3.05;;;;;;;-146.25;100.00;70816.00;5075440;28;20518;-62
2024/01/03 02:29:27;;;;;;;20.30;3.20;;;;;;;-146.25;100.00;70816.00;5072213;28;20479;-62
2024/01/03 02:31:53;;;;;;;21.52;3.95;;;;;;;-146.25;100.00;70816.00;5074035;28;20090;-62
2024/01/03 02:34:18;;;;;;;24.90;3.58;;;;;;;-146.25;100.00;70816.00;5072712;28;20570;-61
2024/01/03 02:36:47;;;;;;;21.48;3.30;;;;;;;-146.25;100.00;70816.00;5074644;28;20041;-61
2024/01/03 02:39:12;;;;;;;21.58;3.42;;;;;;;-146.25;100.00;70816.00;5074895;28;20036;-60
2024/01/03 02:41:38;;;;;;;18.70;3.40;;;;;;;-146.25;100.00;70816.00;5064684;28;20044;-61
2024/01/03 02:44:03;;;;;;;19.75;4.25;;;;;;;-146.25;100.00;70816.00;5072460;28;20110;-61
2024/01/03 02:46:28;;;;;;;21.33;3.63;;;;;;;-146.25;100.00;70816.00;5072586;28;20037;-61
2024/01/03 02:48:54;;;;;;;20.20;3.50;;;;;;;-146.25;100.00;70816.00;5074944;28;20040;-61
2024/01/03 02:51:20;;;;;;;22.88;3.42;;;;;;;-146.25;100.00;70816.00;5076920;28;20033;-61
2024/01/03 02:53:45;;;;;;;19.23;3.63;;;;;;;-146.25;100.00;70816.00;5075103;28;20092;-61
2024/01/03 02:56:11;;;;;;;21.15;4.40;;;;;;;-146.25;100.00;70816.00;5075574;28;20119;-59
2024/01/03 02:58:37;;;;;;;20.05;3.83;;;;;;;-146.25;100.00;70816.00;5074236;28;20446;-59
2024/01/03 03:01:04;;;;;;;21.77;4.20;;;;;;;-146.25;100.00;70816.00;5063741;28;20116;-60
2024/01/03 03:03:29;;;;;;;24.88;4.95;;;;;;;-146.25;100.00;70816.00;5072825;28;20519;-60
2024/01/03 03:05:55;;;;;;;22.15;4.05;;;;;;;-146.25;100.00;70816.00;5075507;28;20040;-60
2024/01/03 03:08:20;;;;;;;21.73;3.72;;;;;;;-146.25;100.00;70816.00;5074087;28;20093;-61
2024/01/03 03:10:46;;;;;;;22.30;4.07;;;;;;;-146.25;100.00;70816.00;5072367;28;20024;-60
2024/01/03 03:13:11;;;;;;;21.65;4.30;;;;;;;-146.25;100.00;70816.00;5074369;28;20052;-61
2024/01/03 03:15:36;;;;;;;18.60;4.03;;;;;;;-146.25;100.00;70816.00;5072910;28;20036;-60
2024/01/03 03:18:02;;;;;;;20.42;3.60;;;;;;;-146.25;100.00;70816.00;5072633;28;20064;-61
2024/01/03 03:20:27;;;;;;;21.60;3.97;;;;;;;-146.25;100.00;70816.00;5074832;28;20055;-61
2024/01/03 03:22:52;;;;;;;21.95;4.32;;;;;;;-146.25;100.00;70816.00;5071792;28;20037;-60
2024/01/03 03:25:17;;;;;;;22.40;4.25;;;;;;;-146.25;100.00;70816.00;5072785;28;20119;-61
2024/01/03 03:27:43;;;;;;;17.20;3.45;;;;;;;-146.25;100.00;70816.00;5070180;28;20044;-61
2024/01/03 03:30:09;;;;;;;20.55;3.85;;;;;;;-146.25;100.00;70816.00;5074160;28;20036;-60
2024/01/03 03:32:34;;;;;;;23.35;3.70;;;;;;;-146.25;100.00;70816.00;5072568;28;20040;-61
2024/01/03 03:34:59;;;;;;;21.83;3.72;;;;;;;-146.25;100.00;70816.00;5072485;28;20438;-61
2024/01/03 03:37:25;;;;;;;24.02;4.35;;;;;;;-146.25;100.00;70816.00;5073236;28;20127;-61
2024/01/03 03:39:50;;;;;;;23.33;4.03;;;;;;;-146.25;100.00;70816.00;5074511;28;20085;-61
2024/01/03 03:42:18;;;;;;;21.83;4.32;;;;;;;-146.25;100.00;70816.00;5074015;28;20044;-61
2024/01/03 03:44:44;;;;;;;21.35;3.92;;;;;;;-146.25;100.00;70816.00;5075666;28;20028;-62
2024/01/03 03:47:09;;;;;;;20.42;3.67;;;;;;;-146.25;100.00;70816.00;5074664;28;20453;-61
2024/01/03 03:49:34;;;;;;;21.88;4.38;;;;;;;-146.25;100.00;70816.00;5073490;28;20407;-61
2024/01/03 03:51:59;;;;;;;26.75;4.55;;;;;;;-146.25;100.00;70816.00;5072812;28;21233;-62
2024/01/03 03:54:25;;;;;;;22.65;3.92;;;;;;;-146.25;100.00;70816.00;5072858;28;20026;-61
2024/01/03 03:56:50;;;;;;;26.70;4.85;;;;;;;-146.25;100.00;70816.00;5074534;28;20862;-61
2024/01/03 03:59:15;;;;;;;24.40;4.20;;;;;;;-146.25;100.00;70816.00;5071829;28;20420;-61
2024/01/03 04:01:47;;;;;;;22.67;4.47;;;;;;;-146.25;100.00;70816.00;5069409;28;20036;-61
2024/01/03 04:04:13;;;;;;;20.13;4.00;;;;;;;-146.25;100.00;70816.00;5072926;28;20052;-61
2024/01/03 04:06:42;;;;;;;23.00;3.70;;;;;;;-146.25;100.00;70816.00;5073200;28;20028;-60
2024/01/03 04:09:08;;;;;;;25.58;4.05;;;;;;;-146.25;100.00;70816.00;5071695;28;20032;-60
2024/01/03 04:11:33;;;;;;;24.88;4.38;;;;;;;-146.25;100.00;70816.00;5073927;28;20031;-60
2024/01/03 04:13:59;;;;;;;26.30;4.10;;;;;;;-146.25;100.00;70816.00;5072949;28;20047;-61
2024/01/03 04:16:24;;;;;;;23.27;4.20;;;;;;;-146.25;100.00;70816.00;5075508;28;20039;-60
2024/01/03 04:18:49;;;;;;;27.92;4.82;;;;;;;-146.25;100.00;70816.00;5073252;28;20032;-61
2024/01/03 04:21:15;;;;;;;26.08;4.78;;;;;;;-146.25;100.00;70816.00;5074599;28;20028;-60
2024/01/03 04:23:40;;;;;;;25.23;4.40;;;;;;;-146.25;100.00;70816.00;5075286;28;20225;-60
2024/01/03 04:26:05;;;;;;;22.20;3.33;;;;;;;-146.25;100.00;70816.00;5076532;28;20387;-59
2024/01/03 04:28:31;;;;;;;23.70;4.35;;;;;;;-146.25;100.00;70816.00;5076561;28;20639;-61
2024/01/03 04:30:56;;;;;;;21.85;3.88;;;;;;;-146.25;100.00;70816.00;5077906;28;20028;-60
2024/01/03 04:33:21;;;;;;;22.50;4.40;;;;;;;-146.25;100.00;70816.00;5077634;28;20458;-60
2024/01/03 04:35:47;;;;;;;24.48;3.58;;;;;;;-146.25;100.00;70816.00;5076833;28;20029;-61
2024/01/03 04:38:12;;;;;;;20.88;3.40;;;;;;;-146.25;100.00;70816.00;5076969;28;20078;-61
2024/01/03 04:40:37;;;;;;;21.38;3.60;;;;;;;-146.25;100.00;70816.00;5075243;28;20035;-61
2024/01/03 04:43:02;;;;;;;18.42;3.72;;;;;;;-146.25;100.00;70816.00;5075623;28;20033;-61
2024/01/03 04:45:28;;;;;;;20.70;3.40;;;;;;;-146.25;100.00;70816.00;5075682;28;20062;-61
2024/01/03 04:47:53;;;;;;;19.08;3.35;;;;;;;-146.25;100.00;70816.00;5078172;28;20548;-60
2024/01/03 04:50:18;;;;;;;19.10;3.10;;;;;;;-146.25;100.00;70816.00;5076846;28;20040;-60
2024/01/03 04:52:44;;;;;;;21.60;3.55;;;;;;;-146.25;100.00;70816.00;5074528;28;20139;-62
2024/01/03 04:55:10;;;;;;;19.67;3.13;;;;;;;-146.25;100.00;70816.00;5075942;28;20076;-61
2024/01/03 04:57:35;;;;;;;20.08;3.35;;;;;;;-146.25;100.00;70816.00;5077206;28;20058;-61
2024/01/03 05:00:01;;;;;;;16.20;2.72;;;;;;;-146.25;100.00;70816.00;5077010;28;20035;-61
2024/01/03 05:02:26;;;;;;;18.33;2.97;;;;;;;-146.25;100.00;70816.00;5076391;28;20032;-61
2024/01/03 05:04:52;;;;;;;13.57;2.42;;;;;;;-146.25;100.00;70816.00;5077825;28;20040;-61
2024/01/03 05:07:18;;;;;;;15.80;3.03;;;;;;;-146.25;100.00;70816.00;5077360;28;20135;-61
2024/01/03 05:09:43;;;;;;;16.58;2.70;;;;;;;-146.25;100.00;70816.00;5073907;28;20032;-62
2024/01/03 05:12:09;;;;;;;15.15;2.90;;;;;;;-146.25;100.00;70816.00;5076726;28;20048;-62
2024/01/03 05:14:34;;;;;;;15.38;3.08;;;;;;;-146.25;100.00;70816.00;5075875;28;20028;-62
2024/01/03 05:17:00;;;;;;;12.02;2.53;;;;;;;-146.25;100.00;70816.00;5076115;28;20047;-62
2024/01/03 05:19:25;;;;;;;17.10;2.90;;;;;;;-146.25;100.00;70816.00;5074155;28;20064;-61
2024/01/03 05:21:50;;;;;;;16.67;2.55;;;;;;;-146.25;100.00;70816.00;5076326;28;20043;-61
2024/01/03 05:24:16;;;;;;;14.00;2.72;;;;;;;-146.25;100.00;70816.00;5076210;28;20544;-60
2024/01/03 05:26:41;;;;;;;15.13;2.40;;;;;;;-146.25;100.00;70816.00;5075705;28;20062;-60
2024/01/03 05:29:07;;;;;;;11.27;2.00;;;;;;;-146.25;100.00;70816.00;5075084;28;20071;-59
2024/01/03 05:31:32;;;;;;;15.32;2.53;;;;;;;-146.25;100.00;70816.00;5075953;28;20460;-59
2024/01/03 05:33:57;;;;;;;12.73;2.20;;;;;;;-146.25;100.00;70816.00;5073808;28;20059;-58
2024/01/03 05:36:23;;;;;;;13.25;2.25;;;;;;;-146.25;100.00;70816.00;5075466;28;20507;-60
2024/01/03 05:38:48;;;;;;;14.75;1.88;;;;;;;-146.25;100.00;70816.00;5076060;28;20048;-59
2024/01/03 05:41:13;;;;;;;11.20;2.13;;;;;;;-146.25;100.00;70816.00;5073977;28;20031;-58
2024/01/03 05:43:39;;;;;;;15.13;1.83;;;;;;;-146.25;100.00;70816.00;5075307;28;20711;-59
2024/01/03 05:46:04;;;;;;;16.67;2.20;;;;;;;-146.25;100.00;70816.00;5076530;28;20708;-60
2024/01/03 05:48:29;;;;;;;11.63;1.90;;;;;;;-146.25;100.00;70816.00;5073720;28;20036;-60
2024/01/03 05:50:54;;;;;;;12.60;2.10;;;;;;;-146.25;100.00;70816.00;5075388;28;20446;-58
2024/01/03 05:53:20;;;;;;;12.43;2.10;;;;;;;-146.25;100.00;70816.00;5074391;28;20040;-59
2024/01/03 05:55:45;;;;;;;11.93;1.70;;;;;;;-146.25;100.00;70816.00;5074608;28;20037;-59
2024/01/03 05:58:10;;;;;;;10.93;2.03;;;;;;;-146.25;100.00;70816.00;5073027;28;20032;-60
2024/01/03 06:00:36;;;;;;;8.50;1.60;;;;;;;-146.25;100.00;70816.00;5073408;28;20498;-60
2024/01/03 06:03:02;;;;;;;13.18;1.90;;;;;;;-146.25;100.00;70816.00;5073227;28;20096;-59
2024/01/03 06:05:27;;;;;;;8.13;1.55;;;;;;;-146.25;100.00;70816.00;5074037;28;20396;-60
2024/01/03 06:07:53;;;;;;;9.20;2.08;;;;;;;-146.25;100.00;70816.00;5074072;28;20032;-60
2024/01/03 06:10:18;;;;;;;11.55;1.90;;;;;;;-146.25;100.00;70816.00;5075390;28;20037;-60
2024/01/03 06:12:43;;;;;;;8.05;1.80;;;;;;;-146.25;100.00;70816.00;5076641;28;20050;-60
2024/01/03 06:15:08;;;;;;;9.73;1.77;;;;;;;-146.25;100.00;70816.00;5072724;28;20051;-60
2024/01/03 06:17:34;;;;;;;13.40;3.05;;;;;;;-146.25;100.00;70816.00;5074425;28;20051;-59
2024/01/03 06:19:59;;;;;;;15.98;3.22;;;;;;;-146.25;100.00;70816.00;5075668;28;20123;-59
2024/01/03 06:22:24;;;;;;;16.75;2.53;;;;;;;-146.25;100.00;70816.00;5074494;28;20553;-60
2024/01/03 06:24:50;;;;;;;14.73;2.47;;;;;;;-146.25;100.00;70816.00;5072309;28;20040;-60
2024/01/03 06:27:15;;;;;;;9.95;2.20;;;;;;;-146.25;100.00;70816.00;5072405;28;20487;-60
2024/01/03 06:29:42;;;;;;;14.85;2.40;;;;;;;-146.25;100.00;70816.00;5074790;28;20028;-60
2024/01/03 06:32:07;;;;;;;12.45;2.60;;;;;;;-146.25;100.00;70816.00;5075022;28;20032;-60
2024/01/03 06:34:32;;;;;;;12.32;2.60;;;;;;;-146.25;100.00;70816.00;5072598;28;20033;-60
2024/01/03 06:37:00;;;;;;;12.25;2.75;;;;;;;-146.25;100.00;70816.00;5077684;28;20193;-61
2024/01/03 06:39:25;;;;;;;12.88;2.50;;;;;;;-146.25;100.00;70816.00;5072841;28;20102;-60
2024/01/03 06:41:50;;;;;;;13.88;2.45;;;;;;;-146.25;100.00;70816.00;5077274;28;20428;-58
2024/01/03 06:44:16;;;;;;;15.88;2.88;;;;;;;-146.25;100.00;70816.00;5073894;28;20028;-59
2024/01/03 06:46:41;;;;;;;13.80;2.35;;;;;;;-146.25;100.00;70816.00;5075345;28;20028;-59
2024/01/03 06:49:06;;;;;;;9.00;1.75;;;;;;;-146.25;100.00;70816.00;5076072;28;20534;-59
2024/01/03 06:51:32;;;;;;;10.40;1.70;;;;;;;-146.25;100.00;70816.00;5075911;28;20052;-60
2024/01/03 06:53:57;;;;;;;10.93;1.95;;;;;;;-146.25;100.00;70816.00;5075271;28;20475;-60
2024/01/03 06:56:24;;;;;;;13.77;2.17;;;;;;;-146.25;100.00;70816.00;5071413;28;20545;-60
2024/01/03 06:58:50;;;;;;;9.32;1.67;;;;;;;-146.25;100.00;70816.00;5072602;28;20040;-60
2024/01/03 07:01:16;;;;;;;9.90;1.92;;;;;;;-146.25;100.00;70816.00;5072116;28;20097;-60
2024/01/03 07:03:41;;;;;;;8.32;1.70;;;;;;;-146.25;100.00;70816.00;5074095;28;20035;-60
2024/01/03 07:06:06;;;;;;;7.72;1.73;;;;;;;-146.25;100.00;70816.00;5071164;28;20028;-60
2024/01/03 07:08:31;;;;;;;7.93;1.52;;;;;;;-146.25;100.00;70816.00;5073767;28;20036;-61
2024/01/03 07:10:57;;;;;;;10.18;1.60;;;;;;;-146.25;100.00;70816.00;5075530;28;20043;-60
2024/01/03 07:13:22;;;;;;;4.72;1.42;;;;;;;-146.25;100.00;70816.00;5074198;28;20047;-59
2024/01/03 07:15:47;;;;;;;6.90;1.63;;;;;;;-146.25;100.00;70816.00;5071821;28;20129;-60
2024/01/03 07:18:13;;;;;;;8.30;1.70;;;;;;;-146.25;100.00;70816.00;5073588;28;20627;-61
2024/01/03 07:20:38;;;;;;;4.60;1.30;;;;;;;-146.25;100.00;70816.00;5074351;28;20024;-60
2024/01/03 07:23:03;;;;;;;4.20;1.10;;;;;;;-146.25;100.00;70816.00;5073143;28;20164;-61
2024/01/03 07:25:29;;;;;;;5.25;1.35;;;;;;;-146.25;100.00;70816.00;5073822;28;20035;-60
2024/01/03 07:27:54;;;;;;;3.75;1.52;;;;;;;-146.25;100.00;70816.00;5072349;28;20040;-61
2024/01/03 07:30:21;;;;;;;5.38;1.98;;;;;;;-146.25;100.00;70816.00;5076166;28;20044;-61
2024/01/03 07:32:46;;;;;;;13.55;2.90;;;;;;;-146.25;100.00;70816.00;5089017;28;20039;-60
2024/01/03 07:35:12;;;;;;;5.10;1.65;;;;;;;-146.25;100.00;70816.00;5083018;28;20028;-60
2024/01/03 07:37:37;;;;;;;8.70;1.65;;;;;;;-146.25;100.00;70816.00;5082957;28;20051;-61
2024/01/03 07:40:04;;;;;;;4.95;1.83;;;;;;;-146.25;100.00;70816.00;5082085;28;20036;-60
2024/01/03 07:42:29;;;;;;;18.55;4.57;;;;;;;-146.25;100.00;70816.00;5079984;28;20508;-59
2024/01/03 07:44:54;;;;;;;6.47;1.52;;;;;;;-146.25;100.00;70816.00;5073162;28;20507;-59
2024/01/03 07:47:19;;;;;;;8.05;1.73;;;;;;;-146.25;100.00;70816.00;5071344;28;20040;-60
2024/01/03 07:49:45;;;;;;;7.45;1.88;;;;;;;-146.25;100.00;70816.00;5060805;28;20528;-60
2024/01/03 07:52:10;;;;;;;6.57;1.85;;;;;;;-146.25;100.00;70816.00;5073022;28;20032;-61
2024/01/03 07:54:35;;;;;;;4.60;1.20;;;;;;;-146.25;100.00;70816.00;5072432;28;20508;-61
2024/01/03 07:57:04;;;;;;;5.00;1.42;;;;;;;-146.25;100.00;70816.00;5069989;28;20429;-60
2024/01/03 07:59:31;;;;;;;5.53;1.80;;;;;;;-146.25;100.00;70816.00;5073461;28;20603;-60
2024/01/03 08:01:56;;;;;;;2.72;1.80;;;;;;;-146.25;100.00;70816.00;5072858;28;20044;-61
2024/01/03 08:04:21;;;;;;;7.53;2.10;;;;;;;-146.25;100.00;70816.00;5062105;28;20047;-60
2024/01/03 08:06:46;;;;;;;7.88;2.05;;;;;;;-146.25;100.00;70816.00;5074795;28;20169;-61
2024/01/03 08:09:12;;;;;;;6.32;2.20;;;;;;;-146.25;100.00;70816.00;5073043;28;20042;-59
2024/01/03 08:11:37;;;;;;;6.63;2.75;;;;;;;-146.25;100.00;70816.00;5063013;28;20032;-60
2024/01/03 08:14:03;;;;;;;12.10;2.40;;;;;;;-146.25;100.00;70816.00;5073491;28;20045;-60
2024/01/03 08:16:28;;;;;;;9.45;2.75;;;;;;;-146.25;100.00;70816.00;5071968;28;20051;-60
2024/01/03 08:18:54;;;;;;;11.05;2.63;;;;;;;-146.25;100.00;70816.00;5077204;28;20488;-61
2024/01/03 08:21:19;;;;;;;11.95;2.53;;;;;;;-146.25;100.00;70816.00;5076421;28;20028;-60
2024/01/03 08:23:45;;;;;;;11.40;2.90;;;;;;;-146.25;100.00;70816.00;5071530;28;20111;-61
2024/01/03 08:26:12;;;;;;;10.63;2.45;;;;;;;-146.25;100.00;70816.00;5072642;28;20058;-60
2024/01/03 08:28:41;;;;;;;13.23;2.70;;;;;;;-146.25;100.00;70816.00;5061887;28;20040;-60
2024/01/03 08:31:08;;;;;;;14.02;2.72;;;;;;;-146.25;100.00;70816.00;5072669;28;20145;-61
2024/01/03 08:33:34;;;;;;;11.88;2.42;;;;;;;-146.25;100.00;70816.00;5073378;28;20051;-61
2024/01/03 08:36:01;;;;;;;12.05;2.80;;;;;;;-146.25;100.00;70816.00;5071262;28;20040;-60
2024/01/03 08:38:26;;;;;;;12.95;2.65;;;;;;;-146.25;100.00;70816.00;5072620;28;20048;-61
2024/01/03 08:40:51;;;;;;;14.05;2.60;;;;;;;-146.25;100.00;70816.00;5073263;28;20035;-61
2024/01/03 08:43:16;;;;;;;13.30;2.80;;;;;;;-146.25;100.00;70816.00;5071906;28;20121;-61
2024/01/03 08:45:42;;;;;;;14.00;2.97;;;;;;;-146.25;100.00;70816.00;5071475;28;20585;-62
2024/01/03 08:48:07;;;;;;;15.88;2.55;;;;;;;-146.25;100.00;70816.00;5071794;28;20037;-61
2024/01/03 08:50:32;;;;;;;16.42;3.13;;;;;;;-146.25;100.00;70816.00;5072659;28;20067;-61
2024/01/03 08:52:57;;;;;;;17.20;3.60;;;;;;;-146.25;100.00;70816.00;5070591;28;20036;-61
2024/01/03 08:55:23;;;;;;;20.48;4.03;;;;;;;-146.25;100.00;70816.00;5071032;28;20397;-62
2024/01/03 08:57:49;;;;;;;22.85;5.05;;;;;;;-146.25;100.00;70816.00;5073447;28;20048;-61
2024/01/03 09:00:14;;;;;;;23.17;4.65;;;;;;;-146.25;100.00;70816.00;5071349;28;20054;-62
2024/01/03 09:02:40;;;;;;;20.52;3.63;;;;;;;-146.25;100.00;70816.00;5071329;28;20040;-61
2024/01/03 09:05:05;;;;;;;19.40;4.03;;;;;;;-146.25;100.00;70816.00;5072860;28;20080;-61
2024/01/03 09:07:31;;;;;;;18.15;3.25;;;;;;;-146.25;100.00;70816.00;5073350;28;20037;-60
2024/01/03 09:09:56;;;;;;;19.45;3.80;;;;;;;-146.25;100.00;70816.00;5073516;28;20035;-61
2024/01/03 09:12:24;;;;;;;20.48;4.47;;;;;;;-146.25;100.00;70816.00;5076366;28;20033;-57
2024/01/03 09:14:50;;;;;;;22.05;4.45;;;;;;;-146.25;100.00;70816.00;5074156;28;20115;-62
2024/01/03 09:17:15;;;;;;;19.70;3.53;;;;;;;-146.25;100.00;70816.00;5075197;28;22584;-61
2024/01/03 09:19:40;;;;;;;18.77;3.60;;;;;;;-146.25;100.00;70816.00;5076783;28;20028;-61
2024/01/03 09:22:06;;;;;;;21.90;3.72;;;;;;;-146.25;100.00;70816.00;5075491;28;20036;-62
2024/01/03 09:24:31;;;;;;;22.42;5.28;;;;;;;-146.25;100.00;70816.00;5075053;28;20100;-61
2024/01/03 09:26:57;;;;;;;18.27;3.15;;;;;;;-146.25;100.00;70816.00;5080049;28;20182;-61
2024/01/03 09:29:22;;;;;;;22.35;4.65;;;;;;;-146.25;100.00;70816.00;5086190;28;20110;-59
2024/01/03 09:31:48;;;;;;;20.42;4.20;;;;;;;-146.25;100.00;70816.00;5073714;28;20063;-60
2024/01/03 09:34:13;;;;;;;22.90;3.90;;;;;;;-146.25;100.00;70816.00;5074606;28;20059;-61
2024/01/03 09:36:38;;;;;;;19.83;3.25;;;;;;;-146.25;100.00;70816.00;5074280;28;20704;-61
2024/01/03 09:39:04;;;;;;;26.00;3.85;;;;;;;-146.25;100.00;70816.00;5071143;28;20108;-60
2024/01/03 09:41:30;;;;;;;20.17;3.58;;;;;;;-146.25;100.00;70816.00;5073260;28;20032;-60
2024/01/03 09:43:56;;;;;;;22.40;3.90;;;;;;;-146.25;100.00;70816.00;5072847;28;20056;-61
2024/01/03 09:46:23;;;;;;;22.75;4.05;;;;;;;-146.25;100.00;70816.00;5070929;28;20064;-60
2024/01/03 09:48:49;;;;;;;24.33;4.05;;;;;;;-146.25;100.00;70816.00;5073279;28;20040;-60
2024/01/03 09:51:14;;;;;;;20.95;3.65;;;;;;;-146.25;100.00;70816.00;5073596;28;20086;-60
2024/01/03 09:53:40;;;;;;;23.05;3.88;;;;;;;-146.25;100.00;70816.00;5072614;28;20119;-60
2024/01/03 09:56:06;;;;;;;22.90;4.30;;;;;;;-146.25;100.00;70816.00;5071670;28;20025;-60
2024/01/03 09:58:33;;;;;;;20.67;3.97;;;;;;;-146.25;100.00;70816.00;5074457;28;20036;-60
2024/01/03 10:00:58;;;;;;;20.73;4.00;;;;;;;-146.25;100.00;70816.00;5072593;28;20124;-60
2024/01/03 10:03:23;;;;;;;18.02;3.20;;;;;;;-146.25;100.00;70816.00;5070925;28;20460;-60
2024/01/03 10:06:09;;;;;;;19.42;3.75;;;;;;;-146.25;100.00;70816.00;5074234;28;20489;-60
2024/01/03 10:08:35;;;;;;;22.58;4.22;;;;;;;-146.25;100.00;70816.00;5071267;28;20116;-60
2024/01/03 10:11:00;;;;;;;19.55;3.65;;;;;;;-146.25;100.00;70816.00;5074100;28;20042;-60
2024/01/03 10:13:28;;;;;;;19.15;3.88;;;;;;;-146.25;100.00;70816.00;5073747;28;20426;-60
2024/01/03 10:15:54;;;;;;;23.52;3.85;;;;;;;-146.25;100.00;70816.00;5074519;28;20098;-61
2024/01/03 10:18:21;;;;;;;18.52;3.22;;;;;;;-146.25;100.00;70816.00;5074954;28;20032;-61
2024/01/03 10:20:47;;;;;;;18.67;3.40;;;;;;;-146.25;100.00;70816.00;5074318;28;20046;-61
2024/01/03 10:23:14;;;;;;;19.63;3.95;;;;;;;-146.25;100.00;70816.00;5072314;28;20036;-61
2024/01/03 10:25:44;;;;;;;17.33;3.88;;;;;;;-146.25;100.00;70816.00;5071242;28;20044;-61
2024/01/03 10:28:11;;;;;;;20.02;3.50;;;;;;;-146.25;100.00;70816.00;5073936;28;20071;-61
2024/01/03 10:30:36;;;;;;;19.08;3.45;;;;;;;-146.25;100.00;70816.00;5074911;28;20020;-62
2024/01/03 10:33:05;;;;;;;22.05;4.53;;;;;;;-146.25;100.00;70816.00;5073127;28;20396;-60
2024/01/03 10:35:31;;;;;;;26.08;4.35;;;;;;;-146.25;100.00;70816.00;5073133;28;20043;-61
2024/01/03 10:37:59;;;;;;;24.13;3.92;;;;;;;-146.25;100.00;70816.00;5072076;28;20040;-61
2024/01/03 10:40:29;;;;;;;23.75;4.45;;;;;;;-146.25;100.00;70816.00;5071370;28;20047;-61
2024/01/03 10:42:54;;;;;;;25.25;4.32;;;;;;;-146.25;100.00;70816.00;5060524;28;20032;-61
2024/01/03 10:45:20;;;;;;;21.45;4.70;;;;;;;-146.25;100.00;70816.00;5073643;28;20671;-60
2024/01/03 10:47:46;;;;;;;25.00;4.13;;;;;;;-146.25;100.00;70816.00;5073526;28;20032;-61
2024/01/03 10:50:12;;;;;;;23.80;5.30;;;;;;;-146.25;100.00;70816.00;5074287;28;20123;-62
2024/01/03 10:52:37;;;;;;;18.52;3.53;;;;;;;-146.25;100.00;70816.00;5072040;28;20138;-60
2024/01/03 10:55:05;;;;;;;23.65;4.25;;;;;;;-146.25;100.00;70816.00;5071657;28;20166;-61
2024/01/03 10:57:34;;;;;;;25.17;5.97;;;;;;;-146.25;100.00;70816.00;5074479;28;20076;-60